Time;durP1;ratioP1;P1;durP2;ratioP2;P2;SDS_P1;SDS_P2;PMS_P1;PMS_P2;Temp;Humidity;BMP_temperature;BMP_pressure;BME280_temperature;BME280_humidity;BME280_pressure;Samples;Min_cycle;Max_cycle;Signal;HPM_P1;HPM_P2
2023/05/06 00:04:42;;;;;;;18.87;11.30;;;;;;;-146.07;100.00;70291.31;10410495;28;20268;-80
2023/05/06 00:09:42;;;;;;;15.87;9.57;;;;;;;-146.07;100.00;70291.31;10430032;28;20975;-80
2023/05/06 00:14:42;;;;;;;17.87;10.67;;;;;;;-146.07;100.00;70291.31;10432963;28;20377;-80
2023/05/06 00:19:43;;;;;;;22.70;9.77;;;;;;;-146.07;100.00;70291.31;10430335;28;20680;-80
2023/05/06 00:24:43;;;;;;;14.80;9.63;;;;;;;-146.07;100.00;70291.31;10428602;28;20026;-80
2023/05/06 00:29:44;;;;;;;20.80;10.27;;;;;;;-146.07;100.00;70291.31;10392232;28;20053;-80
2023/05/06 00:34:45;;;;;;;18.50;10.77;;;;;;;-146.07;100.00;70291.31;10409957;28;20584;-80
2023/05/06 00:39:45;;;;;;;22.13;10.27;;;;;;;-146.07;100.00;70291.31;10431727;28;20053;-80
2023/05/06 00:44:45;;;;;;;15.13;9.97;;;;;;;-146.07;100.00;70291.31;10432350;28;20346;-80
2023/05/06 00:49:47;;;;;;;18.47;12.03;;;;;;;-146.07;100.00;70291.31;10431746;28;20758;-80
2023/05/06 00:54:48;;;;;;;16.05;9.13;;;;;;;-146.07;100.00;70291.31;10431141;28;20279;-80
2023/05/06 00:59:48;;;;;;;23.70;11.75;;;;;;;-146.07;100.00;70291.31;10430915;28;20025;-79
2023/05/06 01:04:50;;;;;;;19.88;10.48;;;;;;;-146.07;100.00;70291.31;10431119;28;20029;-78
2023/05/06 01:10:19;;;;;;;23.13;11.00;;;;;;;-146.07;100.00;70291.31;10430733;28;20025;-79
2023/05/06 01:15:32;;;;;;;21.05;12.02;;;;;;;-146.07;100.00;70291.31;10429779;28;20223;-78
2023/05/06 01:20:33;;;;;;;21.25;12.10;;;;;;;-146.07;100.00;70291.31;10429793;28;20087;-78
2023/05/06 01:25:33;;;;;;;25.50;13.63;;;;;;;-146.07;100.00;70291.31;10428004;28;20149;-78
2023/05/06 01:30:41;;;;;;;22.47;12.97;;;;;;;-146.07;100.00;70291.31;10429279;28;20035;-78
2023/05/06 01:35:50;;;;;;;26.10;13.00;;;;;;;-146.07;100.00;70291.31;10429183;28;20267;-78
2023/05/06 01:40:54;;;;;;;24.13;12.90;;;;;;;-146.07;100.00;70291.31;10405317;28;20045;-78
2023/05/06 01:45:55;;;;;;;24.83;12.55;;;;;;;-146.07;100.00;70291.31;10408561;28;20071;-78
2023/05/06 01:50:55;;;;;;;27.77;13.48;;;;;;;-146.07;100.00;70291.31;10410678;28;20020;-79
2023/05/06 01:55:56;;;;;;;23.63;12.48;;;;;;;-146.07;100.00;70291.31;10429471;28;20411;-79
2023/05/06 02:00:56;;;;;;;23.87;12.20;;;;;;;-146.07;100.00;70291.31;10428204;28;20483;-79
2023/05/06 02:05:57;;;;;;;24.33;12.27;;;;;;;-146.07;100.00;70291.31;10410736;28;20294;-78
2023/05/06 02:10:57;;;;;;;31.83;12.98;;;;;;;-146.07;100.00;70291.31;10428113;28;20169;-78
2023/05/06 02:15:57;;;;;;;24.67;12.90;;;;;;;-146.07;100.00;70291.31;10397147;28;20077;-78
2023/05/06 02:20:58;;;;;;;28.42;15.13;;;;;;;-146.07;100.00;70291.31;10387248;28;20704;-79
2023/05/06 02:25:58;;;;;;;33.28;14.18;;;;;;;-146.07;100.00;70291.31;10399086;28;20053;-78
2023/05/06 02:30:59;;;;;;;24.45;12.30;;;;;;;-146.07;100.00;70291.31;10415264;28;20111;-78
2023/05/06 02:35:59;;;;;;;27.25;11.85;;;;;;;-146.07;100.00;70291.31;10427382;28;20095;-78
2023/05/06 02:40:59;;;;;;;21.38;11.98;;;;;;;-146.07;100.00;70291.31;10416996;28;20464;-80
2023/05/06 02:46:00;;;;;;;21.67;11.40;;;;;;;-146.07;100.00;70291.31;10426481;28;20368;-79
2023/05/06 02:51:01;;;;;;;18.60;10.55;;;;;;;-146.07;100.00;70291.31;10422002;28;20271;-78
2023/05/06 02:56:01;;;;;;;22.60;10.95;;;;;;;-146.07;100.00;70291.31;10406931;28;20033;-80
2023/05/06 03:01:01;;;;;;;19.27;10.87;;;;;;;-146.07;100.00;70291.31;10426552;28;20127;-80
2023/05/06 03:06:02;;;;;;;20.98;11.32;;;;;;;-146.07;100.00;70291.31;10425416;28;20291;-77
2023/05/06 03:11:02;;;;;;;19.70;10.23;;;;;;;-146.07;100.00;70291.31;10426234;28;20029;-78
2023/05/06 03:16:03;;;;;;;31.57;11.67;;;;;;;-146.07;100.00;70291.31;10426477;28;20028;-80
2023/05/06 03:21:03;;;;;;;18.90;11.48;;;;;;;-146.07;100.00;70291.31;10420979;28;21051;-78
2023/05/06 03:26:04;;;;;;;20.55;11.15;;;;;;;-146.07;100.00;70291.31;10425532;28;20762;-77
2023/05/06 03:31:04;;;;;;;20.30;12.32;;;;;;;-146.07;100.00;70291.31;10425549;28;20033;-78
2023/05/06 03:36:05;;;;;;;24.13;11.15;;;;;;;-146.07;100.00;70291.31;10405922;28;20032;-78
2023/05/06 03:41:06;;;;;;;21.27;11.40;;;;;;;-146.07;100.00;70291.31;10426912;28;20127;-81
2023/05/06 03:46:06;;;;;;;22.98;11.50;;;;;;;-146.07;100.00;70291.31;10431235;28;20029;-78
2023/05/06 03:51:07;;;;;;;20.65;12.77;;;;;;;-146.07;100.00;70291.31;10418246;28;20444;-78
2023/05/06 03:56:07;;;;;;;16.88;10.98;;;;;;;-146.07;100.00;70291.31;10432776;28;20032;-78
2023/05/06 04:01:07;;;;;;;21.55;10.70;;;;;;;-146.07;100.00;70291.31;10431945;28;20040;-81
2023/05/06 04:06:08;;;;;;;20.30;10.57;;;;;;;-146.07;100.00;70291.31;10432059;28;20029;-80
2023/05/06 04:11:09;;;;;;;22.67;11.63;;;;;;;-146.07;100.00;70291.31;10414727;28;20888;-80
2023/05/06 04:16:11;;;;;;;20.88;10.52;;;;;;;-146.07;100.00;70291.31;10431337;28;20310;-78
2023/05/06 04:21:12;;;;;;;22.58;10.90;;;;;;;-146.07;100.00;70291.31;10431681;28;20025;-78
2023/05/06 04:26:12;;;;;;;22.88;10.15;;;;;;;-146.07;100.00;70291.31;10427935;28;20037;-77
2023/05/06 04:31:13;;;;;;;17.92;10.73;;;;;;;-146.07;100.00;70291.31;10431387;28;20048;-78
2023/05/06 04:36:13;;;;;;;19.33;9.75;;;;;;;-146.07;100.00;70291.31;10427099;28;20041;-78
2023/05/06 04:41:14;;;;;;;20.83;10.40;;;;;;;-146.07;100.00;70291.31;10427012;28;20568;-78
2023/05/06 04:46:15;;;;;;;19.27;10.95;;;;;;;-146.07;100.00;70291.31;10430037;28;20025;-78
2023/05/06 04:51:16;;;;;;;20.33;10.48;;;;;;;-146.07;100.00;70291.31;10430315;28;20028;-79
2023/05/06 04:56:16;;;;;;;30.60;10.82;;;;;;;-146.07;100.00;70291.31;10430175;28;20029;-79
2023/05/06 05:01:18;;;;;;;22.50;11.25;;;;;;;-146.07;100.00;70291.31;10437930;28;20494;-79
2023/05/06 05:06:18;;;;;;;18.95;10.80;;;;;;;-146.07;100.00;70291.31;10452804;28;20115;-78
2023/05/06 05:11:19;;;;;;;21.83;10.30;;;;;;;-146.07;100.00;70291.31;10452292;28;20035;-79
2023/05/06 05:16:19;;;;;;;18.45;10.15;;;;;;;-146.07;100.00;70291.31;10434756;28;20279;-75
2023/05/06 05:21:20;;;;;;;15.18;9.98;;;;;;;-146.07;100.00;70291.31;10427590;28;20086;-74
2023/05/06 05:26:20;;;;;;;20.52;10.50;;;;;;;-146.07;100.00;70291.31;10427651;28;20037;-76
2023/05/06 05:31:21;;;;;;;20.05;10.27;;;;;;;-146.07;100.00;70291.31;10436790;28;20067;-76
2023/05/06 05:36:22;;;;;;;19.08;9.68;;;;;;;-146.07;100.00;70291.31;10426304;28;20401;-76
2023/05/06 05:41:22;;;;;;;17.27;10.95;;;;;;;-146.07;100.00;70291.31;10413533;28;20055;-76
2023/05/06 05:46:23;;;;;;;22.00;10.90;;;;;;;-146.07;100.00;70291.31;10426878;28;20028;-80
2023/05/06 05:51:23;;;;;;;21.43;11.03;;;;;;;-146.07;100.00;70291.31;10372236;28;20385;-78
2023/05/06 05:56:24;;;;;;;22.88;10.93;;;;;;;-146.07;100.00;70291.31;10381624;28;20287;-78
2023/05/06 06:01:24;;;;;;;20.50;11.45;;;;;;;-146.07;100.00;70291.31;10424326;28;20050;-81
2023/05/06 06:06:25;;;;;;;16.63;10.50;;;;;;;-146.07;100.00;70291.31;10442414;28;20029;-81
2023/05/06 06:11:26;;;;;;;18.27;9.43;;;;;;;-146.07;100.00;70291.31;10427482;28;20411;-81
2023/05/06 06:16:26;;;;;;;19.65;10.77;;;;;;;-146.07;100.00;70291.31;10427478;28;20021;-77
2023/05/06 06:21:27;;;;;;;19.65;10.80;;;;;;;-146.07;100.00;70291.31;10450322;28;20028;-77
2023/05/06 06:26:36;;;;;;;20.52;9.90;;;;;;;;;;10311577;27;20654;-76
2023/05/06 06:31:36;;;;;;;22.27;10.25;;;;;;;;;;10458614;27;20075;-76
2023/05/06 06:36:39;;;;;;;22.63;12.70;;;;;;;;;;10317565;28;20023;-76
2023/05/06 06:41:39;;;;;;;23.02;11.50;;;;;;;;;;10383804;28;20047;-77
2023/05/06 06:46:40;;;;;;;20.17;10.70;;;;;;;;;;10375828;28;20456;-77
2023/05/06 06:51:40;;;;;;;18.80;10.93;;;;;;;;;;10535230;28;20027;-77
2023/05/06 06:56:41;;;;;;;24.90;12.20;;;;;;;;;;10352776;28;20577;-76
2023/05/06 07:01:41;;;;;;;24.50;12.98;;;;;;;;;;10369261;28;20400;-77
2023/05/06 07:06:41;;;;;;;23.70;12.90;;;;;;;;;;10370072;28;20018;-77
2023/05/06 07:11:42;;;;;;;18.77;10.48;;;;;;;;;;10369123;28;20022;-77
2023/05/06 07:16:42;;;;;;;24.80;12.18;;;;;;;;;;10369567;28;20026;-77
2023/05/06 07:21:42;;;;;;;19.73;10.27;;;;;;;;;;10332992;28;20018;-77
2023/05/06 07:26:42;;;;;;;23.13;8.73;;;;;;;;;;10396269;28;20033;-77
2023/05/06 07:31:43;;;;;;;16.40;8.57;;;;;;;;;;10409155;28;20381;-77
2023/05/06 07:36:43;;;;;;;13.87;9.03;;;;;;;;;;10474848;27;20021;-78
2023/05/06 07:41:44;;;;;;;18.08;8.02;;;;;;;;;;10445738;27;20069;-77
2023/05/06 07:46:44;;;;;;;11.52;7.15;;;;;;;;;;10339153;28;20017;-77
2023/05/06 07:51:45;;;;;;;14.10;7.00;;;;;;;;;;10340525;28;20395;-77
2023/05/06 07:56:45;;;;;;;11.40;6.70;;;;;;;;;;10342000;28;20131;-77
2023/05/06 08:01:45;;;;;;;10.48;6.32;;;;;;;;;;10340976;28;20381;-77
2023/05/06 08:06:46;;;;;;;12.63;6.37;;;;;;;;;;10341008;28;20022;-77
2023/05/06 08:11:46;;;;;;;11.73;5.30;;;;;;;;;;10370794;28;20014;-77
2023/05/06 08:16:46;;;;;;;10.13;5.53;;;;;;;;;;10381686;28;20022;-78
2023/05/06 08:21:47;;;;;;;8.00;5.27;;;;;;;;;;10380469;28;20386;-78
2023/05/06 08:26:47;;;;;;;9.65;4.80;;;;;;;;;;10362470;28;20022;-78
2023/05/06 08:31:48;;;;;;;12.35;4.70;;;;;;;;;;10379754;28;20090;-78
2023/05/06 08:36:48;;;;;;;11.57;5.18;;;;;;;;;;10381148;28;20607;-78
2023/05/06 08:41:51;;;;;;;12.95;5.53;;;;;;;;;;10434377;27;20029;-78
2023/05/06 08:46:51;;;;;;;10.68;5.68;;;;;;;;;;10338550;28;20222;-78
2023/05/06 08:51:51;;;;;;;10.93;5.40;;;;;;;;;;10339771;28;20071;-77
2023/05/06 08:56:52;;;;;;;9.77;5.33;;;;;;;;;;10352406;28;20688;-78
2023/05/06 09:01:53;;;;;;;10.73;5.05;;;;;;;;;;10380549;28;20033;-78
2023/05/06 09:06:53;;;;;;;13.60;4.80;;;;;;;;;;10380115;28;20044;-78
2023/05/06 09:11:56;;;;;;;7.20;5.27;;;;;;;;;;10379948;28;20041;-77
2023/05/06 09:16:56;;;;;;;7.13;4.40;;;;;;;;;;10366396;28;20481;-77
2023/05/06 09:21:57;;;;;;;7.85;4.28;;;;;;;;;;10298805;28;20578;-79
2023/05/06 09:26:57;;;;;;;8.77;4.93;;;;;;;;;;10298745;28;20028;-78
2023/05/06 09:32:03;;;;;;;7.95;4.35;;;;;;;;;;10361554;28;20025;-77
2023/05/06 09:37:03;;;;;;;5.78;3.97;;;;;;;;;;10357122;28;20083;-77
2023/05/06 09:42:04;;;;;;;9.48;4.50;;;;;;;;;;10330259;28;20026;-79
2023/05/06 09:47:05;;;;;;;9.20;4.05;;;;;;;;;;10350660;28;20018;-79
2023/05/06 09:52:05;;;;;;;5.85;3.90;;;;;;;;;;10378678;28;20021;-78
2023/05/06 09:57:06;;;;;;;8.18;4.20;;;;;;;;;;10478599;27;20023;-78
2023/05/06 10:02:07;;;;;;;6.57;4.30;;;;;;;;;;10457456;28;20021;-78
2023/05/06 10:07:11;;;;;;;6.40;4.32;;;;;;;;;;10353047;28;20472;-78
2023/05/06 10:12:12;;;;;;;7.95;4.40;;;;;;;;;;10339327;28;20022;-78
2023/05/06 10:17:15;;;;;;;7.07;4.53;;;;;;;;;;10377221;28;20025;-78
2023/05/06 10:22:21;;;;;;;7.32;4.72;;;;;;;;;;10380111;28;20053;-78
2023/05/06 10:27:23;;;;;;;8.95;4.95;;;;;;;;;;10376974;28;20052;-78
2023/05/06 10:32:25;;;;;;;10.45;3.42;;;;;;;;;;10354316;28;20022;-79
2023/05/06 10:37:27;;;;;;;8.32;2.67;;;;;;;;;;10336239;28;20132;-78
2023/05/06 10:42:35;;;;;;;6.38;3.17;;;;;;;;;;10337350;28;20018;-78
2023/05/06 10:47:35;;;;;;;;;;;;;;;;;;10336363;28;20022;-78
2023/05/06 10:52:42;;;;;;;5.22;2.55;;;;;;;;;;10420022;28;19906;-78
2023/05/06 10:57:43;;;;;;;5.63;2.85;;;;;;;;;;10336282;28;20030;-77
2023/05/06 11:02:43;;;;;;;4.82;2.40;;;;;;;;;;10355327;28;20026;-78
2023/05/06 11:07:44;;;;;;;3.30;2.23;;;;;;;;;;10325761;28;20025;-78
2023/05/06 11:12:48;;;;;;;5.05;2.47;;;;;;;;;;10321898;28;20775;-78
2023/05/06 11:17:48;;;;;;;2.63;2.20;;;;;;;;;;10367288;28;20058;-78
2023/05/06 11:22:52;;;;;;;3.10;2.28;;;;;;;;;;10366236;28;20540;-78
2023/05/06 11:27:54;;;;;;;22.85;5.32;;;;;;;;;;10353648;28;20488;-78
2023/05/06 11:32:55;;;;;;;11.05;2.50;;;;;;;;;;10328745;28;20530;-78
2023/05/06 11:37:56;;;;;;;6.70;2.30;;;;;;;;;;10341625;28;20079;-78
2023/05/06 11:43:12;;;;;;;7.27;3.13;;;;;;;;;;10299305;28;20023;-78
2023/05/06 11:48:17;;;;;;;6.53;2.65;;;;;;;;;;10350611;28;20471;-78
2023/05/06 11:53:28;;;;;;;3.88;2.10;;;;;;;;;;10381758;28;20061;-77
2023/05/06 11:58:29;;;;;;;5.97;2.95;;;;;;;;;;10381862;28;20448;-76
2023/05/06 12:03:30;;;;;;;8.57;2.53;;;;;;;;;;10452659;27;20022;-76
2023/05/06 12:08:34;;;;;;;4.32;2.33;;;;;;;;;;10365581;28;20317;-77
2023/05/06 12:13:36;;;;;;;4.63;2.53;;;;;;;;;;10381153;28;20073;-76
2023/05/06 12:18:36;;;;;;;2.60;2.15;;;;;;;;;;10387383;28;20029;-77
2023/05/06 12:23:48;;;;;;;12.37;2.40;;;;;;;;;;10459060;27;20038;-77
2023/05/06 12:29:05;;;;;;;4.20;2.88;;;;;;;;;;10496754;28;20033;-77
2023/05/06 12:34:05;;;;;;;5.63;2.45;;;;;;;;;;10380256;28;20025;-77
2023/05/06 12:39:05;;;;;;;6.55;2.95;;;;;;;;;;10353562;28;20034;-78
2023/05/06 12:44:24;;;;;;;6.90;2.33;;;;;;;;;;10377571;28;20468;-78
2023/05/06 12:49:25;;;;;;;7.75;3.10;;;;;;;;;;10363681;28;20029;-78
2023/05/06 12:54:29;;;;;;;6.80;3.43;;;;;;;;;;10543268;28;20031;-78
2023/05/06 12:59:30;;;;;;;5.15;2.70;;;;;;;;;;10446748;28;20067;-78
2023/05/06 13:04:30;;;;;;;18.23;3.58;;;;;;;;;;10335710;28;20025;-78
2023/05/06 13:09:31;;;;;;;3.45;2.65;;;;;;;;;;10339377;28;20121;-78
2023/05/06 13:14:31;;;;;;;6.57;2.60;;;;;;;;;;10342492;28;20392;-78
2023/05/06 13:19:31;;;;;;;9.37;2.90;;;;;;;;;;10339061;28;20026;-78
2023/05/06 13:24:32;;;;;;;9.63;3.10;;;;;;;;;;10374036;28;20133;-78
2023/05/06 13:29:32;;;;;;;4.90;3.03;;;;;;;;;;10464257;27;20041;-78
2023/05/06 13:34:33;;;;;;;6.55;2.88;;;;;;;;;;10378021;28;20025;-78
2023/05/06 13:39:33;;;;;;;6.00;3.27;;;;;;;;;;10365860;28;20030;-78
2023/05/06 13:44:34;;;;;;;3.27;2.37;;;;;;;;;;10342265;28;20022;-78
2023/05/06 13:49:34;;;;;;;6.03;2.55;;;;;;;;;;10378840;28;20101;-78
2023/05/06 13:54:35;;;;;;;3.97;2.53;;;;;;;;;;10378505;28;20041;-78
2023/05/06 13:59:35;;;;;;;6.32;2.40;;;;;;;;;;10378595;28;20073;-78
2023/05/06 14:04:35;;;;;;;7.65;2.60;;;;;;;;;;10378044;28;20025;-78
2023/05/06 14:09:35;;;;;;;10.97;2.60;;;;;;;;;;10377757;28;20021;-78
2023/05/06 14:14:36;;;;;;;7.85;2.50;;;;;;;;;;10376265;28;20048;-78
2023/05/06 14:19:45;;;;;;;3.65;2.15;;;;;;;;;;10303477;28;20050;-78
2023/05/06 14:24:51;;;;;;;2.67;2.30;;;;;;;;;;10296608;28;20058;-78
2023/05/06 14:29:55;;;;;;;5.50;2.80;;;;;;;;;;10345131;28;20021;-77
2023/05/06 14:34:55;;;;;;;6.15;2.22;;;;;;;;;;10326695;28;20061;-78
2023/05/06 14:39:56;;;;;;;5.30;2.75;;;;;;;;;;10330866;28;20512;-77
2023/05/06 14:44:56;;;;;;;4.15;2.60;;;;;;;;;;10360978;28;20030;-78
2023/05/06 14:49:59;;;;;;;6.10;2.67;;;;;;;;;;10352001;28;20065;-78
2023/05/06 14:55:02;;;;;;;2.88;2.60;;;;;;;;;;10360638;28;20053;-78
2023/05/06 15:00:07;;;;;;;3.88;2.65;;;;;;;;;;10381691;28;20025;-77
2023/05/06 15:05:23;;;;;;;4.93;2.25;;;;;;;;;;10378422;28;20030;-77
2023/05/06 15:10:23;;;;;;;6.35;2.80;;;;;;;;;;10557243;28;20539;-78
2023/05/06 15:15:24;;;;;;;7.68;2.90;;;;;;;;;;10462105;28;20124;-78
2023/05/06 15:20:24;;;;;;;5.93;3.23;;;;;;;;;;10342784;28;20088;-78
2023/05/06 15:25:25;;;;;;;10.85;2.92;;;;;;;;;;10350096;28;20514;-78
2023/05/06 15:30:25;;;;;;;4.32;2.78;;;;;;;;;;10382249;28;20310;-78
2023/05/06 15:35:26;;;;;;;4.67;2.90;;;;;;;;;;10458592;27;20022;-78
2023/05/06 15:40:26;;;;;;;4.03;2.97;;;;;;;;;;10341693;28;20408;-78
2023/05/06 15:45:26;;;;;;;5.33;2.27;;;;;;;;;;10341912;28;20034;-78
2023/05/06 15:50:27;;;;;;;4.93;2.50;;;;;;;;;;10372260;28;20302;-78
2023/05/06 15:55:27;;;;;;;11.63;2.50;;;;;;;;;;10382275;28;20036;-78
2023/05/06 16:00:28;;;;;;;4.13;2.20;;;;;;;;;;10344679;28;20121;-77
2023/05/06 16:05:28;;;;;;;5.30;2.67;;;;;;;;;;10334315;28;20049;-78
2023/05/06 16:10:28;;;;;;;4.63;3.05;;;;;;;;;;10341168;28;20314;-77
2023/05/06 16:15:29;;;;;;;3.88;2.72;;;;;;;;;;10345969;28;20062;-75
2023/05/06 16:20:31;;;;;;;4.88;2.45;;;;;;;;;;10377280;28;20090;-78
2023/05/06 16:25:38;;;;;;;6.40;2.95;;;;;;;;;;10448123;27;20114;-78
2023/05/06 16:30:39;;;;;;;5.78;2.80;;;;;;;;;;10338071;28;20072;-78
2023/05/06 16:35:39;;;;;;;4.28;2.70;;;;;;;;;;10282023;28;20748;-76
2023/05/06 16:40:43;;;;;;;7.80;2.70;;;;;;;;;;10310364;28;20044;-78
2023/05/06 16:45:46;;;;;;;4.63;3.05;;;;;;;;;;10420665;28;20477;-77
2023/05/06 16:50:46;;;;;;;4.32;3.20;;;;;;;;;;10355065;28;20421;-77
2023/05/06 16:55:47;;;;;;;5.10;3.20;;;;;;;;;;10374907;28;20023;-78
2023/05/06 17:00:47;;;;;;;5.85;3.00;;;;;;;;;;10426273;28;20117;-78
2023/05/06 17:05:48;;;;;;;10.47;4.47;;;;;;;;;;10373606;28;20033;-78
2023/05/06 17:10:48;;;;;;;9.75;4.15;;;;;;;;;;10345414;28;20018;-78
2023/05/06 17:15:48;;;;;;;11.48;2.85;;;;;;;;;;10349038;28;20446;-78
2023/05/06 17:20:52;;;;;;;7.67;3.37;;;;;;;;;;10336571;28;20041;-78
2023/05/06 17:25:54;;;;;;;7.95;4.30;;;;;;;;;;10292629;28;20819;-78
2023/05/06 17:30:54;;;;;;;5.75;2.90;;;;;;;;;;10298425;28;20092;-77
2023/05/06 17:35:55;;;;;;;6.10;3.00;;;;;;;;;;10283092;28;20596;-77
2023/05/06 17:40:55;;;;;;;6.30;3.95;;;;;;;;;;10294139;28;20068;-78
2023/05/06 17:45:55;;;;;;;5.38;3.20;;;;;;;;;;10376658;28;20041;-78
2023/05/06 17:51:00;;;;;;;7.87;3.43;;;;;;;;;;10367756;28;20021;-78
2023/05/06 17:56:01;;;;;;;6.22;3.65;;;;;;;;;;10364392;28;20016;-77
2023/05/06 18:01:01;;;;;;;7.20;3.70;;;;;;;;;;10366283;28;20025;-78
2023/05/06 18:06:02;;;;;;;11.02;4.47;;;;;;;;;;10365280;28;20079;-77
2023/05/06 18:11:02;;;;;;;8.10;4.00;;;;;;;;;;10336232;28;20026;-80
2023/05/06 18:16:03;;;;;;;11.63;5.13;;;;;;;;;;10323926;28;20281;-77
2023/05/06 18:21:03;;;;;;;9.70;4.50;;;;;;;;;;10297367;28;20401;-73
2023/05/06 18:26:04;;;;;;;11.15;4.20;;;;;;;;;;10325710;28;20053;-72
2023/05/06 18:31:05;;;;;;;6.10;4.47;;;;;;;;;;10303747;28;20141;-75
2023/05/06 18:36:05;;;;;;;8.95;4.57;;;;;;;;;;10321315;28;20018;-72
2023/05/06 18:41:06;;;;;;;10.88;4.78;;;;;;;;;;10322272;28;20025;-73
2023/05/06 18:46:07;;;;;;;13.38;5.43;;;;;;;;;;10310266;28;20026;-75
2023/05/06 18:51:16;;;;;;;15.10;4.67;;;;;;;;;;10322963;28;20022;-74
2023/05/06 18:56:16;;;;;;;9.13;4.63;;;;;;;;;;10318259;28;20273;-76
2023/05/06 19:01:17;;;;;;;13.77;4.82;;;;;;;;;;10321147;28;20037;-78
2023/05/06 19:06:17;;;;;;;9.52;5.30;;;;;;;;;;10325597;28;20075;-78
2023/05/06 19:11:17;;;;;;;9.47;5.70;;;;;;;;;;10335015;28;20082;-83
2023/05/06 19:16:18;;;;;;;9.70;5.63;;;;;;;;;;10308180;28;20506;-78
2023/05/06 19:21:18;;;;;;;9.37;5.13;;;;;;;;;;10338268;28;20488;-80
2023/05/06 19:26:18;;;;;;;9.77;5.90;;;;;;;;;;10310802;28;20046;-78
2023/05/06 19:31:19;;;;;;;12.20;5.97;;;;;;;;;;10309010;28;20260;-76
2023/05/06 19:36:19;;;;;;;14.65;6.72;;;;;;;;;;10228167;28;20025;-72
2023/05/06 19:41:20;;;;;;;14.57;7.10;;;;;;;;;;10303490;28;20121;-76
2023/05/06 19:46:20;;;;;;;21.77;7.03;;;;;;;;;;10326003;28;20033;-73
2023/05/06 19:51:20;;;;;;;10.57;5.50;;;;;;;;;;10331028;28;20122;-76
2023/05/06 19:56:21;;;;;;;14.80;6.35;;;;;;;;;;10319747;28;20109;-80
2023/05/06 20:01:22;;;;;;;14.27;6.20;;;;;;;;;;10345555;28;20041;-73
2023/05/06 20:06:22;;;;;;;13.27;6.47;;;;;;;;;;10285920;28;20026;-73
2023/05/06 20:11:24;;;;;;;10.80;6.03;;;;;;;;;;10261453;28;20041;-74
2023/05/06 20:16:25;;;;;;;18.10;6.70;;;;;;;;;;10265801;28;21080;-79
2023/05/06 20:21:25;;;;;;;15.52;6.07;;;;;;;;;;10275203;28;20557;-81
2023/05/06 20:26:34;;;;;;;11.63;6.47;;;;;;;;;;10267652;28;20064;-83
2023/05/06 20:31:41;;;;;;;16.15;6.10;;;;;;;;;;10278765;28;20021;-81
2023/05/06 20:36:42;;;;;;;13.55;6.25;;;;;;;;;;10299074;28;20071;-77
2023/05/06 20:41:42;;;;;;;17.13;6.13;;;;;;;;;;10336803;28;20746;-78
2023/05/06 20:46:42;;;;;;;16.25;6.43;;;;;;;;;;10340719;28;20025;-84
2023/05/06 20:51:43;;;;;;;14.25;5.68;;;;;;;;;;10345727;28;20033;-76
2023/05/06 20:56:43;;;;;;;11.13;5.97;;;;;;;;;;10377858;28;20021;-75
2023/05/06 21:01:43;;;;;;;13.73;5.23;;;;;;;;;;10378310;28;20433;-74
2023/05/06 21:06:44;;;;;;;12.02;5.65;;;;;;;;;;10377273;28;20079;-74
2023/05/06 21:11:45;;;;;;;10.65;5.57;;;;;;;;;;10462689;27;20026;-74
2023/05/06 21:16:45;;;;;;;8.88;5.88;;;;;;;;;;10364759;28;20109;-75
2023/05/06 21:21:45;;;;;;;12.67;6.13;;;;;;;;;;10340913;28;20025;-75
2023/05/06 21:26:46;;;;;;;8.43;5.63;;;;;;;;;;10358739;28;20028;-74
2023/05/06 21:31:46;;;;;;;17.13;6.37;;;;;;;;;;10356429;28;20033;-75
2023/05/06 21:36:46;;;;;;;12.23;6.97;;;;;;;;;;10378940;28;20612;-75
2023/05/06 21:41:47;;;;;;;10.77;6.13;;;;;;;;;;10377066;28;20461;-75
2023/05/06 21:46:47;;;;;;;12.80;5.85;;;;;;;;;;10371008;28;20466;-74
2023/05/06 21:51:48;;;;;;;9.47;5.80;;;;;;;;;;10336658;28;20029;-76
2023/05/06 21:56:48;;;;;;;12.40;6.70;;;;;;;;;;10336486;28;20048;-75
2023/05/06 22:01:51;;;;;;;12.30;6.17;;;;;;;;;;10364181;28;20017;-76
2023/05/06 22:06:51;;;;;;;13.00;6.82;;;;;;;;;;10454674;27;20625;-75
2023/05/06 22:11:51;;;;;;;12.50;6.20;;;;;;;;;;10368000;28;20022;-75
2023/05/06 22:16:52;;;;;;;8.20;5.80;;;;;;;;;;10377207;28;20169;-75
2023/05/06 22:21:55;;;;;;;9.75;5.93;;;;;;;;;;10476412;27;20455;-75
2023/05/06 22:26:55;;;;;;;11.75;6.10;;;;;;;;;;10422152;28;20427;-75
2023/05/06 22:31:55;;;;;;;8.32;5.78;;;;;;;;;;10374371;28;20022;-75
2023/05/06 22:36:56;;;;;;;9.40;6.60;;;;;;;;;;10377082;28;20136;-75
2023/05/06 22:41:56;;;;;;;11.55;6.05;;;;;;;;;;10448869;28;20025;-75
2023/05/06 22:46:56;;;;;;;25.70;14.55;;;;;;;;;;10376678;28;20064;-75
2023/05/06 22:51:57;;;;;;;10.63;5.80;;;;;;;;;;10376007;28;20025;-75
2023/05/06 22:56:57;;;;;;;14.85;5.80;;;;;;;;;;10462485;28;20770;-74
2023/05/06 23:01:57;;;;;;;9.45;5.60;;;;;;;;;;10375764;28;20033;-75
2023/05/06 23:06:57;;;;;;;10.50;5.28;;;;;;;;;;10379810;28;20034;-74
2023/05/06 23:11:58;;;;;;;7.97;5.05;;;;;;;;;;10382593;28;20410;-74
2023/05/06 23:16:58;;;;;;;6.22;4.88;;;;;;;;;;10382999;28;20025;-74
2023/05/06 23:21:58;;;;;;;5.93;4.07;;;;;;;;;;10461057;28;20051;-74
2023/05/06 23:26:59;;;;;;;7.78;5.30;;;;;;;;;;10555976;28;20399;-75
2023/05/06 23:31:59;;;;;;;8.45;4.60;;;;;;;;;;10362330;28;20420;-75
2023/05/06 23:36:59;;;;;;;10.20;4.57;;;;;;;;;;10301388;28;20030;-75
2023/05/06 23:42:01;;;;;;;7.83;4.83;;;;;;;;;;10350700;28;20399;-75
2023/05/06 23:47:01;;;;;;;10.88;4.85;;;;;;;;;;10375680;28;20273;-75
2023/05/06 23:52:01;;;;;;;6.68;4.20;;;;;;;;;;10337919;28;20464;-75
2023/05/06 23:57:02;;;;;;;7.45;4.30;;;;;;;;;;10381927;28;20538;-75
